createdAt,value
2022-11-04T00:04:51.725Z,968.17
2022-11-04T00:10:22.975Z,968.37
2022-11-04T00:15:54.750Z,968.55
2022-11-04T00:21:26.373Z,968.44
2022-11-04T00:27:02.652Z,968.46
2022-11-04T00:32:34.136Z,968.68
2022-11-04T00:38:06.863Z,968.76
2022-11-04T00:43:37.655Z,968.56
2022-11-04T00:49:09.495Z,968.36
2022-11-04T00:54:41.211Z,968.32
2022-11-04T01:00:12.911Z,968.68
2022-11-04T01:05:44.651Z,968.64
2022-11-04T01:11:16.305Z,968.38
2022-11-04T01:16:48.099Z,968.9
2022-11-04T01:22:19.818Z,968.88
2022-11-04T01:27:55.911Z,969.07
2022-11-04T01:33:27.567Z,968.97
2022-11-04T01:38:59.471Z,969.17
2022-11-04T01:44:31.020Z,968.85
2022-11-04T01:50:02.879Z,968.4
2022-11-04T01:55:34.594Z,968.8
2022-11-04T02:01:06.446Z,969.09
2022-11-04T02:06:38.019Z,968.98
2022-11-04T02:12:09.730Z,968.86
2022-11-04T02:17:41.542Z,968.47
2022-11-04T02:23:13.250Z,968.14
2022-11-04T02:28:49.359Z,968.3
2022-11-04T02:34:21.191Z,968.26
2022-11-04T02:39:53.328Z,967.99
2022-11-04T02:45:24.770Z,967.82
2022-11-04T02:50:56.207Z,967.96
2022-11-04T02:56:28.161Z,968.14
2022-11-04T03:02:00.357Z,968.27
2022-11-04T03:07:31.392Z,968.12
2022-11-04T03:13:03.389Z,968.46
2022-11-04T03:18:35.140Z,968.39
2022-11-04T03:24:06.667Z,968.41
2022-11-04T03:29:42.934Z,968.79
2022-11-04T03:35:14.533Z,969.1
2022-11-04T03:40:46.354Z,969.35
2022-11-04T03:46:18.294Z,969.24
2022-11-04T03:51:49.754Z,969.32
2022-11-04T03:57:21.252Z,969.15
2022-11-04T04:02:52.980Z,969.14
2022-11-04T04:08:24.830Z,968.98
2022-11-04T04:13:56.395Z,968.91
2022-11-04T04:19:28.424Z,969.02
2022-11-04T04:24:59.906Z,968.98
2022-11-04T04:30:38.222Z,968.63
2022-11-04T04:36:09.742Z,968.78
2022-11-04T04:41:41.968Z,968.78
2022-11-04T04:47:13.180Z,968.8
2022-11-04T04:52:44.853Z,968.78
2022-11-04T04:58:16.639Z,968.79
2022-11-04T05:03:48.323Z,968.23
2022-11-04T05:09:19.971Z,968.24
2022-11-04T05:14:51.813Z,967.79
2022-11-04T05:20:23.795Z,967.76
2022-11-04T05:25:55.450Z,967.65
2022-11-04T05:31:31.591Z,967.69
2022-11-04T05:37:03.306Z,968.0
2022-11-04T05:42:34.867Z,967.96
2022-11-04T05:48:06.458Z,968.0
2022-11-04T05:53:38.236Z,968.07
2022-11-04T05:59:10.010Z,968.15
2022-11-04T06:04:41.759Z,968.04
2022-11-04T06:10:13.514Z,967.82
2022-11-04T06:15:45.294Z,967.81
2022-11-04T06:21:16.872Z,967.78
2022-11-04T06:26:48.611Z,968.11
2022-11-04T06:32:26.762Z,968.28
2022-11-04T06:37:58.447Z,968.5
2022-11-04T06:43:30.398Z,968.24
2022-11-04T06:49:02.083Z,968.77
2022-11-04T06:54:33.557Z,968.7
2022-11-04T07:00:05.407Z,968.72
2022-11-04T07:05:36.950Z,968.68
2022-11-04T07:11:08.747Z,968.59
2022-11-04T07:16:40.495Z,968.25
2022-11-04T07:22:12.164Z,968.4
2022-11-04T07:27:43.906Z,968.48
2022-11-04T07:33:20.441Z,968.98
2022-11-04T07:38:51.799Z,968.99
2022-11-04T07:44:24.187Z,968.59
2022-11-04T07:49:55.304Z,968.65
2022-11-04T07:55:26.896Z,968.92
2022-11-04T08:00:58.688Z,968.79
2022-11-04T08:06:30.851Z,968.66
2022-11-04T08:12:02.137Z,968.66
2022-11-04T08:17:33.852Z,968.72
2022-11-04T08:23:05.720Z,969.2
2022-11-04T08:28:37.504Z,969.65
2022-11-04T08:34:13.407Z,969.5
2022-11-04T08:39:45.155Z,969.42
2022-11-04T08:45:16.927Z,969.62
2022-11-04T08:50:48.538Z,969.74
2022-11-04T08:56:20.377Z,969.73
2022-11-04T09:01:52.022Z,969.56
2022-11-04T09:07:23.946Z,969.78
2022-11-04T09:12:55.353Z,970.06
2022-11-04T09:18:27.126Z,970.36
2022-11-04T09:23:59.091Z,969.96
2022-11-04T09:29:30.844Z,970.34
2022-11-04T09:35:06.858Z,970.45
2022-11-04T09:40:38.625Z,970.4
2022-11-04T09:46:10.061Z,970.14
2022-11-04T09:51:56.524Z,970.52
2022-11-04T09:57:13.748Z,970.72
2022-11-04T10:02:45.505Z,970.61
2022-11-04T10:08:17.333Z,970.69
2022-11-04T10:13:48.799Z,970.71
2022-11-04T10:19:20.781Z,970.58
2022-11-04T10:24:52.358Z,971.22
2022-11-04T10:30:24.125Z,970.33
2022-11-04T10:36:00.247Z,970.79
2022-11-04T10:41:32.079Z,970.45
2022-11-04T10:47:03.920Z,970.69
2022-11-04T10:52:35.719Z,971.25
2022-11-04T10:58:07.364Z,970.14
2022-11-04T11:03:40.343Z,970.83
2022-11-04T11:09:11.828Z,970.08
2022-11-04T11:14:43.276Z,970.08
2022-11-04T11:20:15.117Z,969.99
2022-11-04T11:25:46.844Z,970.11
2022-11-04T11:31:18.442Z,970.1
2022-11-04T11:36:54.707Z,969.94
2022-11-04T11:42:26.623Z,969.79
2022-11-04T11:47:58.163Z,969.81
2022-11-04T11:53:29.933Z,969.63
2022-11-04T12:15:36.611Z,969.68
2022-11-04T12:21:08.423Z,969.55
2022-11-04T12:26:40.681Z,969.92
2022-11-04T12:32:11.740Z,969.42
2022-11-04T12:37:47.786Z,969.98
2022-11-04T12:43:20.082Z,969.56
2022-11-04T12:49:04.488Z,969.7
2022-11-04T12:54:23.192Z,970.08
2022-11-04T12:59:54.622Z,969.58
2022-11-04T13:05:27.204Z,969.82
2022-11-04T13:10:58.177Z,970.07
2022-11-04T13:16:29.854Z,969.91
2022-11-04T13:22:01.937Z,970.05
2022-11-04T13:27:33.296Z,969.53
2022-11-04T13:33:05.072Z,969.16
2022-11-04T13:38:41.643Z,969.53
2022-11-04T13:44:12.912Z,969.44
2022-11-04T13:49:44.607Z,968.75
2022-11-04T13:55:16.291Z,968.89
2022-11-04T14:00:47.895Z,968.81
2022-11-04T14:06:19.719Z,969.44
2022-11-04T14:11:51.592Z,969.05
2022-11-04T14:17:23.214Z,968.55
2022-11-04T14:22:55.556Z,969.16
2022-11-04T14:28:26.633Z,969.48
2022-11-04T14:33:58.540Z,969.61
2022-11-04T14:39:34.499Z,969.58
2022-11-04T14:45:06.156Z,968.53
2022-11-04T14:50:37.909Z,968.34
2022-11-04T14:56:09.901Z,969.3
2022-11-04T15:01:41.777Z,969.19
2022-11-04T15:07:13.284Z,969.52
2022-11-04T15:12:45.029Z,969.63
2022-11-04T15:18:16.763Z,969.49
2022-11-04T15:23:48.221Z,969.2
2022-11-04T15:29:19.970Z,969.4
2022-11-04T15:34:51.867Z,969.54
2022-11-04T15:40:29.840Z,969.37
2022-11-04T15:46:01.536Z,969.66
2022-11-04T15:51:34.047Z,969.38
2022-11-04T15:57:05.332Z,969.4
2022-11-04T16:02:37.148Z,969.71
2022-11-04T16:08:08.465Z,969.92
2022-11-04T16:13:40.197Z,969.72
2022-11-04T16:19:11.961Z,970.09
2022-11-04T16:24:43.742Z,969.89
2022-11-04T16:30:15.802Z,969.91
2022-11-04T16:35:47.189Z,970.01
2022-11-04T16:41:23.301Z,970.34
2022-11-04T16:46:55.769Z,970.3
2022-11-04T16:52:27.985Z,970.61
2022-11-04T16:57:59.189Z,970.59
2022-11-04T17:03:30.983Z,970.62
2022-11-04T17:09:02.662Z,970.47
2022-11-04T17:14:34.411Z,970.6
2022-11-04T17:20:06.375Z,970.58
2022-11-04T17:25:38.075Z,971.1
2022-11-04T17:31:09.611Z,971.16
2022-11-04T17:36:41.695Z,970.63
2022-11-04T17:42:17.911Z,971.33
2022-11-04T17:47:49.355Z,971.18
2022-11-04T17:53:20.975Z,971.49
2022-11-04T17:58:52.585Z,971.2
2022-11-04T18:04:24.535Z,971.73
2022-11-04T18:09:56.089Z,972.2
2022-11-04T18:15:28.390Z,972.33
2022-11-04T18:20:59.568Z,972.54
2022-11-04T18:26:31.360Z,972.52
2022-11-04T18:32:02.962Z,972.65
2022-11-04T18:37:35.013Z,972.48
2022-11-04T18:43:12.265Z,972.06
2022-11-04T18:48:42.489Z,972.51
2022-11-04T18:54:14.475Z,972.72
2022-11-04T18:59:46.203Z,972.74
2022-11-04T19:05:17.758Z,972.8
2022-11-04T19:11:02.492Z,972.9
2022-11-04T19:16:21.443Z,972.94
2022-11-04T19:21:52.847Z,973.1
2022-11-04T19:27:24.627Z,973.23
2022-11-04T19:32:56.312Z,973.46
2022-11-04T19:38:28.135Z,973.34
2022-11-04T19:44:04.099Z,973.37
2022-11-04T19:49:35.956Z,973.47
2022-11-04T19:55:07.537Z,973.74
2022-11-04T20:00:39.388Z,973.82
2022-11-04T20:06:11.032Z,973.74
2022-11-04T20:11:42.631Z,973.69
2022-11-04T20:17:14.632Z,973.81
2022-11-04T20:22:46.148Z,973.77
2022-11-04T20:28:19.217Z,974.02
2022-11-04T20:33:50.080Z,974.13
2022-11-04T20:39:21.804Z,974.45
2022-11-04T20:44:59.543Z,974.34
2022-11-04T20:50:31.421Z,974.64
2022-11-04T20:56:03.020Z,974.62
2022-11-04T21:01:35.239Z,974.67
2022-11-04T21:07:06.712Z,975.09
2022-11-04T21:12:38.128Z,975.02
2022-11-04T21:18:10.821Z,975.08
2022-11-04T21:23:41.608Z,975.2
2022-11-04T21:29:13.430Z,975.06
2022-11-04T21:34:44.960Z,975.3
2022-11-04T21:40:17.083Z,975.02
2022-11-04T21:45:52.885Z,975.13
2022-11-04T21:51:24.599Z,974.89
2022-11-04T21:56:56.640Z,975.34
2022-11-04T22:02:29.132Z,975.42
2022-11-04T22:07:59.863Z,975.61
2022-11-04T22:13:31.516Z,975.73
2022-11-04T22:19:03.435Z,975.66
2022-11-04T22:24:35.131Z,975.66
2022-11-04T22:30:07.174Z,975.57
2022-11-04T22:35:38.414Z,975.2
2022-11-04T22:41:10.483Z,975.35
2022-11-04T22:46:46.291Z,975.79
2022-11-04T22:52:18.420Z,975.52
2022-11-04T22:57:50.021Z,975.17
2022-11-04T23:03:22.093Z,975.6
2022-11-04T23:09:01.361Z,975.39
2022-11-04T23:14:25.159Z,975.59
2022-11-04T23:19:56.947Z,975.77
2022-11-04T23:25:28.452Z,976.08
2022-11-04T23:31:00.176Z,976.0
2022-11-04T23:36:31.980Z,975.97
2022-11-04T23:42:03.575Z,975.85
2022-11-04T23:47:39.835Z,975.91
2022-11-04T23:53:12.253Z,975.87
2022-11-04T23:58:43.085Z,975.93
